sensor_id;sensor_type;location;lat;lon;timestamp;P1;durP1;ratioP1;P2;durP2;ratioP2
57297;SDS011;43147;50.972;18.210;2022-12-18T00:02:14;68.90;;;21.40;;
57297;SDS011;43147;50.972;18.210;2022-12-18T00:04:40;78.10;;;24.50;;
57297;SDS011;43147;50.972;18.210;2022-12-18T00:07:05;51.50;;;17.90;;
57297;SDS011;43147;50.972;18.210;2022-12-18T00:09:31;66.70;;;22.90;;
57297;SDS011;43147;50.972;18.210;2022-12-18T00:11:57;69.60;;;21.90;;
57297;SDS011;43147;50.972;18.210;2022-12-18T00:14:22;57.00;;;19.30;;
57297;SDS011;43147;50.972;18.210;2022-12-18T00:16:48;83.70;;;24.60;;
57297;SDS011;43147;50.972;18.210;2022-12-18T00:19:14;66.10;;;19.50;;
57297;SDS011;43147;50.972;18.210;2022-12-18T00:21:39;68.80;;;22.90;;
57297;SDS011;43147;50.972;18.210;2022-12-18T00:24:06;72.00;;;23.10;;
57297;SDS011;43147;50.972;18.210;2022-12-18T00:26:32;75.90;;;22.90;;
57297;SDS011;43147;50.972;18.210;2022-12-18T00:29:06;62.40;;;20.50;;
57297;SDS011;43147;50.972;18.210;2022-12-18T00:31:34;63.60;;;21.70;;
57297;SDS011;43147;50.972;18.210;2022-12-18T00:34:00;73.20;;;23.20;;
57297;SDS011;43147;50.972;18.210;2022-12-18T00:36:27;65.00;;;20.80;;
57297;SDS011;43147;50.972;18.210;2022-12-18T00:38:54;61.20;;;20.40;;
57297;SDS011;43147;50.972;18.210;2022-12-18T00:41:21;58.80;;;19.80;;
57297;SDS011;43147;50.972;18.210;2022-12-18T00:44:06;51.80;;;17.90;;
57297;SDS011;43147;50.972;18.210;2022-12-18T00:46:32;65.40;;;20.30;;
57297;SDS011;43147;50.972;18.210;2022-12-18T00:48:58;55.90;;;19.00;;
57297;SDS011;43147;50.972;18.210;2022-12-18T00:51:24;60.50;;;19.90;;
57297;SDS011;43147;50.972;18.210;2022-12-18T00:53:52;52.30;;;16.10;;
57297;SDS011;43147;50.972;18.210;2022-12-18T00:56:18;63.60;;;22.00;;
57297;SDS011;43147;50.972;18.210;2022-12-18T00:58:43;84.70;;;24.20;;
57297;SDS011;43147;50.972;18.210;2022-12-18T01:01:09;68.00;;;20.70;;
57297;SDS011;43147;50.972;18.210;2022-12-18T01:03:34;63.00;;;22.30;;
57297;SDS011;43147;50.972;18.210;2022-12-18T01:06:04;60.40;;;19.30;;
57297;SDS011;43147;50.972;18.210;2022-12-18T01:08:31;64.10;;;19.80;;
57297;SDS011;43147;50.972;18.210;2022-12-18T01:10:57;81.00;;;22.00;;
57297;SDS011;43147;50.972;18.210;2022-12-18T01:13:22;71.30;;;22.30;;
57297;SDS011;43147;50.972;18.210;2022-12-18T01:15:51;76.80;;;24.90;;
57297;SDS011;43147;50.972;18.210;2022-12-18T01:18:16;61.40;;;19.70;;
57297;SDS011;43147;50.972;18.210;2022-12-18T01:20:42;91.50;;;27.50;;
57297;SDS011;43147;50.972;18.210;2022-12-18T01:23:08;84.00;;;27.10;;
57297;SDS011;43147;50.972;18.210;2022-12-18T01:25:35;66.50;;;20.20;;
57297;SDS011;43147;50.972;18.210;2022-12-18T01:28:01;69.70;;;22.50;;
57297;SDS011;43147;50.972;18.210;2022-12-18T01:30:26;63.00;;;16.90;;
57297;SDS011;43147;50.972;18.210;2022-12-18T01:32:52;65.40;;;21.50;;
57297;SDS011;43147;50.972;18.210;2022-12-18T01:35:20;62.20;;;19.00;;
57297;SDS011;43147;50.972;18.210;2022-12-18T01:37:45;76.80;;;22.10;;
57297;SDS011;43147;50.972;18.210;2022-12-18T01:40:11;60.20;;;19.60;;
57297;SDS011;43147;50.972;18.210;2022-12-18T01:42:37;79.80;;;20.70;;
57297;SDS011;43147;50.972;18.210;2022-12-18T01:50:16;67.40;;;21.30;;
57297;SDS011;43147;50.972;18.210;2022-12-18T01:52:58;97.20;;;23.00;;
57297;SDS011;43147;50.972;18.210;2022-12-18T01:55:35;88.90;;;24.70;;
57297;SDS011;43147;50.972;18.210;2022-12-18T01:58:03;69.40;;;20.70;;
57297;SDS011;43147;50.972;18.210;2022-12-18T02:00:29;72.70;;;21.90;;
57297;SDS011;43147;50.972;18.210;2022-12-18T02:02:55;78.00;;;21.60;;
57297;SDS011;43147;50.972;18.210;2022-12-18T02:08:09;57.40;;;19.40;;
57297;SDS011;43147;50.972;18.210;2022-12-18T02:10:45;60.10;;;17.70;;
57297;SDS011;43147;50.972;18.210;2022-12-18T02:13:18;72.20;;;22.90;;
57297;SDS011;43147;50.972;18.210;2022-12-18T02:18:23;105.40;;;25.60;;
57297;SDS011;43147;50.972;18.210;2022-12-18T02:23:49;91.70;;;25.10;;
57297;SDS011;43147;50.972;18.210;2022-12-18T02:26:35;71.70;;;21.70;;
57297;SDS011;43147;50.972;18.210;2022-12-18T02:29:08;58.10;;;18.00;;
57297;SDS011;43147;50.972;18.210;2022-12-18T02:31:48;58.80;;;19.80;;
57297;SDS011;43147;50.972;18.210;2022-12-18T02:34:18;65.90;;;18.30;;
57297;SDS011;43147;50.972;18.210;2022-12-18T02:36:46;56.40;;;17.90;;
57297;SDS011;43147;50.972;18.210;2022-12-18T02:39:13;54.90;;;16.80;;
57297;SDS011;43147;50.972;18.210;2022-12-18T02:41:39;46.00;;;15.30;;
57297;SDS011;43147;50.972;18.210;2022-12-18T02:44:09;45.30;;;15.50;;
57297;SDS011;43147;50.972;18.210;2022-12-18T02:46:37;67.50;;;19.80;;
57297;SDS011;43147;50.972;18.210;2022-12-18T02:49:12;66.90;;;19.60;;
57297;SDS011;43147;50.972;18.210;2022-12-18T02:52:01;71.70;;;21.40;;
57297;SDS011;43147;50.972;18.210;2022-12-18T02:54:37;59.80;;;18.10;;
57297;SDS011;43147;50.972;18.210;2022-12-18T02:57:13;63.40;;;19.40;;
57297;SDS011;43147;50.972;18.210;2022-12-18T03:02:44;44.40;;;16.00;;
57297;SDS011;43147;50.972;18.210;2022-12-18T03:05:16;45.80;;;14.80;;
57297;SDS011;43147;50.972;18.210;2022-12-18T03:08:06;61.20;;;17.90;;
57297;SDS011;43147;50.972;18.210;2022-12-18T03:10:35;49.50;;;16.10;;
57297;SDS011;43147;50.972;18.210;2022-12-18T03:13:08;63.30;;;17.10;;
57297;SDS011;43147;50.972;18.210;2022-12-18T03:15:57;48.20;;;17.30;;
57297;SDS011;43147;50.972;18.210;2022-12-18T03:18:23;62.40;;;17.90;;
57297;SDS011;43147;50.972;18.210;2022-12-18T03:20:51;61.50;;;17.80;;
57297;SDS011;43147;50.972;18.210;2022-12-18T03:23:21;80.50;;;20.20;;
57297;SDS011;43147;50.972;18.210;2022-12-18T03:25:48;63.10;;;18.20;;
57297;SDS011;43147;50.972;18.210;2022-12-18T03:28:21;64.00;;;18.40;;
57297;SDS011;43147;50.972;18.210;2022-12-18T03:30:49;60.00;;;18.40;;
57297;SDS011;43147;50.972;18.210;2022-12-18T03:33:23;59.60;;;18.60;;
57297;SDS011;43147;50.972;18.210;2022-12-18T03:35:55;55.00;;;16.80;;
57297;SDS011;43147;50.972;18.210;2022-12-18T03:38:21;51.10;;;16.70;;
57297;SDS011;43147;50.972;18.210;2022-12-18T03:43:34;51.40;;;16.40;;
57297;SDS011;43147;50.972;18.210;2022-12-18T03:46:05;53.90;;;16.00;;
57297;SDS011;43147;50.972;18.210;2022-12-18T03:48:44;50.70;;;16.50;;
57297;SDS011;43147;50.972;18.210;2022-12-18T03:53:58;42.10;;;13.70;;
57297;SDS011;43147;50.972;18.210;2022-12-18T03:56:26;43.10;;;14.20;;
57297;SDS011;43147;50.972;18.210;2022-12-18T03:58:55;39.70;;;12.60;;
57297;SDS011;43147;50.972;18.210;2022-12-18T04:01:24;39.00;;;14.30;;
57297;SDS011;43147;50.972;18.210;2022-12-18T04:03:53;58.30;;;17.00;;
57297;SDS011;43147;50.972;18.210;2022-12-18T04:06:19;57.80;;;16.00;;
57297;SDS011;43147;50.972;18.210;2022-12-18T04:08:45;51.50;;;16.10;;
57297;SDS011;43147;50.972;18.210;2022-12-18T04:11:11;44.10;;;15.00;;
57297;SDS011;43147;50.972;18.210;2022-12-18T04:13:37;52.60;;;15.80;;
57297;SDS011;43147;50.972;18.210;2022-12-18T04:16:04;49.40;;;17.00;;
57297;SDS011;43147;50.972;18.210;2022-12-18T04:18:30;52.70;;;13.60;;
57297;SDS011;43147;50.972;18.210;2022-12-18T04:20:55;61.60;;;14.80;;
57297;SDS011;43147;50.972;18.210;2022-12-18T04:23:21;35.70;;;12.70;;
57297;SDS011;43147;50.972;18.210;2022-12-18T04:25:46;43.20;;;14.20;;
57297;SDS011;43147;50.972;18.210;2022-12-18T04:28:12;45.70;;;14.50;;
57297;SDS011;43147;50.972;18.210;2022-12-18T04:30:37;41.60;;;14.20;;
57297;SDS011;43147;50.972;18.210;2022-12-18T04:33:03;45.70;;;15.10;;
57297;SDS011;43147;50.972;18.210;2022-12-18T04:35:28;39.50;;;14.50;;
57297;SDS011;43147;50.972;18.210;2022-12-18T04:37:54;46.20;;;15.70;;
57297;SDS011;43147;50.972;18.210;2022-12-18T04:40:19;52.80;;;15.90;;
57297;SDS011;43147;50.972;18.210;2022-12-18T04:42:45;37.80;;;11.20;;
57297;SDS011;43147;50.972;18.210;2022-12-18T04:45:10;53.90;;;15.50;;
57297;SDS011;43147;50.972;18.210;2022-12-18T04:47:35;52.60;;;16.80;;
57297;SDS011;43147;50.972;18.210;2022-12-18T04:50:01;47.20;;;16.90;;
57297;SDS011;43147;50.972;18.210;2022-12-18T04:52:26;51.80;;;15.30;;
57297;SDS011;43147;50.972;18.210;2022-12-18T04:54:52;50.70;;;17.40;;
57297;SDS011;43147;50.972;18.210;2022-12-18T04:57:17;41.70;;;12.90;;
57297;SDS011;43147;50.972;18.210;2022-12-18T04:59:43;61.40;;;17.60;;
57297;SDS011;43147;50.972;18.210;2022-12-18T05:02:09;56.60;;;15.80;;
57297;SDS011;43147;50.972;18.210;2022-12-18T05:04:34;50.10;;;15.40;;
57297;SDS011;43147;50.972;18.210;2022-12-18T05:07:00;54.20;;;18.80;;
57297;SDS011;43147;50.972;18.210;2022-12-18T05:09:25;45.40;;;17.20;;
57297;SDS011;43147;50.972;18.210;2022-12-18T05:11:51;63.50;;;20.10;;
57297;SDS011;43147;50.972;18.210;2022-12-18T05:14:16;53.10;;;17.00;;
57297;SDS011;43147;50.972;18.210;2022-12-18T05:16:42;51.00;;;16.60;;
57297;SDS011;43147;50.972;18.210;2022-12-18T05:19:07;49.20;;;16.60;;
57297;SDS011;43147;50.972;18.210;2022-12-18T05:21:33;54.50;;;17.80;;
57297;SDS011;43147;50.972;18.210;2022-12-18T05:23:59;55.90;;;16.00;;
57297;SDS011;43147;50.972;18.210;2022-12-18T05:26:24;50.70;;;16.40;;
57297;SDS011;43147;50.972;18.210;2022-12-18T05:28:50;51.80;;;15.80;;
57297;SDS011;43147;50.972;18.210;2022-12-18T05:31:15;64.90;;;21.40;;
57297;SDS011;43147;50.972;18.210;2022-12-18T05:33:41;57.80;;;20.90;;
57297;SDS011;43147;50.972;18.210;2022-12-18T05:36:07;60.80;;;18.80;;
57297;SDS011;43147;50.972;18.210;2022-12-18T05:38:36;44.20;;;14.50;;
57297;SDS011;43147;50.972;18.210;2022-12-18T05:41:03;53.30;;;17.60;;
57297;SDS011;43147;50.972;18.210;2022-12-18T05:43:30;68.50;;;20.80;;
57297;SDS011;43147;50.972;18.210;2022-12-18T05:45:55;50.40;;;17.30;;
57297;SDS011;43147;50.972;18.210;2022-12-18T05:48:22;56.30;;;18.50;;
57297;SDS011;43147;50.972;18.210;2022-12-18T05:50:48;40.50;;;14.10;;
57297;SDS011;43147;50.972;18.210;2022-12-18T05:53:22;41.00;;;12.90;;
57297;SDS011;43147;50.972;18.210;2022-12-18T05:55:47;48.10;;;15.40;;
57297;SDS011;43147;50.972;18.210;2022-12-18T05:58:13;56.40;;;16.40;;
57297;SDS011;43147;50.972;18.210;2022-12-18T06:00:40;40.40;;;15.50;;
57297;SDS011;43147;50.972;18.210;2022-12-18T06:03:09;39.20;;;11.50;;
57297;SDS011;43147;50.972;18.210;2022-12-18T06:05:35;47.70;;;13.10;;
57297;SDS011;43147;50.972;18.210;2022-12-18T06:08:04;49.60;;;15.30;;
57297;SDS011;43147;50.972;18.210;2022-12-18T06:10:30;59.60;;;15.90;;
57297;SDS011;43147;50.972;18.210;2022-12-18T06:12:56;45.80;;;14.60;;
57297;SDS011;43147;50.972;18.210;2022-12-18T06:15:21;45.50;;;17.10;;
57297;SDS011;43147;50.972;18.210;2022-12-18T06:17:47;58.80;;;16.60;;
57297;SDS011;43147;50.972;18.210;2022-12-18T06:20:12;53.40;;;16.20;;
57297;SDS011;43147;50.972;18.210;2022-12-18T06:22:38;61.80;;;16.80;;
57297;SDS011;43147;50.972;18.210;2022-12-18T06:25:03;59.00;;;18.30;;
57297;SDS011;43147;50.972;18.210;2022-12-18T06:27:29;64.60;;;18.00;;
57297;SDS011;43147;50.972;18.210;2022-12-18T06:29:55;43.90;;;14.80;;
57297;SDS011;43147;50.972;18.210;2022-12-18T06:32:20;48.50;;;16.00;;
57297;SDS011;43147;50.972;18.210;2022-12-18T06:34:46;44.00;;;14.00;;
57297;SDS011;43147;50.972;18.210;2022-12-18T06:37:11;55.60;;;17.80;;
57297;SDS011;43147;50.972;18.210;2022-12-18T06:39:37;51.60;;;16.00;;
57297;SDS011;43147;50.972;18.210;2022-12-18T06:42:02;68.40;;;19.10;;
57297;SDS011;43147;50.972;18.210;2022-12-18T06:44:28;57.60;;;15.50;;
57297;SDS011;43147;50.972;18.210;2022-12-18T06:46:54;62.30;;;17.60;;
57297;SDS011;43147;50.972;18.210;2022-12-18T06:49:19;53.40;;;15.00;;
57297;SDS011;43147;50.972;18.210;2022-12-18T06:51:45;63.20;;;17.50;;
57297;SDS011;43147;50.972;18.210;2022-12-18T06:54:11;66.00;;;18.80;;
57297;SDS011;43147;50.972;18.210;2022-12-18T06:56:36;51.20;;;16.80;;
57297;SDS011;43147;50.972;18.210;2022-12-18T06:59:01;53.70;;;18.30;;
57297;SDS011;43147;50.972;18.210;2022-12-18T07:01:27;69.00;;;18.40;;
57297;SDS011;43147;50.972;18.210;2022-12-18T07:03:53;60.50;;;18.50;;
57297;SDS011;43147;50.972;18.210;2022-12-18T07:06:21;69.00;;;19.40;;
57297;SDS011;43147;50.972;18.210;2022-12-18T07:08:47;63.20;;;19.10;;
57297;SDS011;43147;50.972;18.210;2022-12-18T07:11:14;58.00;;;18.40;;
57297;SDS011;43147;50.972;18.210;2022-12-18T07:13:40;62.90;;;19.00;;
57297;SDS011;43147;50.972;18.210;2022-12-18T07:16:07;73.80;;;19.90;;
57297;SDS011;43147;50.972;18.210;2022-12-18T07:18:34;68.60;;;18.70;;
57297;SDS011;43147;50.972;18.210;2022-12-18T07:21:04;62.60;;;18.80;;
57297;SDS011;43147;50.972;18.210;2022-12-18T07:23:31;67.50;;;19.40;;
57297;SDS011;43147;50.972;18.210;2022-12-18T07:26:00;61.70;;;19.80;;
57297;SDS011;43147;50.972;18.210;2022-12-18T07:28:27;67.90;;;21.10;;
57297;SDS011;43147;50.972;18.210;2022-12-18T07:30:52;69.40;;;21.30;;
57297;SDS011;43147;50.972;18.210;2022-12-18T07:33:19;70.70;;;21.10;;
57297;SDS011;43147;50.972;18.210;2022-12-18T07:35:44;73.90;;;19.50;;
57297;SDS011;43147;50.972;18.210;2022-12-18T07:38:10;70.50;;;22.80;;
57297;SDS011;43147;50.972;18.210;2022-12-18T07:40:35;64.40;;;21.50;;
57297;SDS011;43147;50.972;18.210;2022-12-18T07:43:01;69.90;;;22.20;;
57297;SDS011;43147;50.972;18.210;2022-12-18T07:45:27;83.00;;;22.00;;
57297;SDS011;43147;50.972;18.210;2022-12-18T07:47:52;59.80;;;20.30;;
57297;SDS011;43147;50.972;18.210;2022-12-18T07:50:17;62.00;;;21.40;;
57297;SDS011;43147;50.972;18.210;2022-12-18T07:52:43;63.00;;;19.50;;
57297;SDS011;43147;50.972;18.210;2022-12-18T07:55:09;72.30;;;21.90;;
57297;SDS011;43147;50.972;18.210;2022-12-18T07:57:34;67.30;;;21.10;;
57297;SDS011;43147;50.972;18.210;2022-12-18T08:00:00;68.10;;;22.20;;
57297;SDS011;43147;50.972;18.210;2022-12-18T08:02:25;66.60;;;18.50;;
57297;SDS011;43147;50.972;18.210;2022-12-18T08:04:51;76.70;;;23.00;;
57297;SDS011;43147;50.972;18.210;2022-12-18T08:07:16;65.50;;;21.40;;
57297;SDS011;43147;50.972;18.210;2022-12-18T08:09:41;65.50;;;21.70;;
57297;SDS011;43147;50.972;18.210;2022-12-18T08:12:07;61.70;;;21.50;;
57297;SDS011;43147;50.972;18.210;2022-12-18T08:14:32;60.20;;;20.30;;
57297;SDS011;43147;50.972;18.210;2022-12-18T08:16:58;75.20;;;19.60;;
57297;SDS011;43147;50.972;18.210;2022-12-18T08:19:23;57.20;;;18.60;;
57297;SDS011;43147;50.972;18.210;2022-12-18T08:21:49;61.00;;;20.30;;
57297;SDS011;43147;50.972;18.210;2022-12-18T08:24:15;63.50;;;19.90;;
57297;SDS011;43147;50.972;18.210;2022-12-18T08:26:43;77.00;;;23.40;;
57297;SDS011;43147;50.972;18.210;2022-12-18T08:29:08;76.00;;;23.10;;
57297;SDS011;43147;50.972;18.210;2022-12-18T08:31:33;67.30;;;23.10;;
57297;SDS011;43147;50.972;18.210;2022-12-18T08:33:59;62.80;;;22.30;;
57297;SDS011;43147;50.972;18.210;2022-12-18T08:36:24;57.90;;;20.30;;
57297;SDS011;43147;50.972;18.210;2022-12-18T08:38:50;65.30;;;22.50;;
57297;SDS011;43147;50.972;18.210;2022-12-18T08:41:16;62.90;;;20.30;;
57297;SDS011;43147;50.972;18.210;2022-12-18T08:43:42;77.10;;;22.30;;
57297;SDS011;43147;50.972;18.210;2022-12-18T08:46:27;55.00;;;19.50;;
57297;SDS011;43147;50.972;18.210;2022-12-18T08:48:53;77.80;;;22.80;;
57297;SDS011;43147;50.972;18.210;2022-12-18T08:51:20;65.30;;;22.10;;
57297;SDS011;43147;50.972;18.210;2022-12-18T08:53:45;58.20;;;18.80;;
57297;SDS011;43147;50.972;18.210;2022-12-18T08:56:11;66.50;;;20.80;;
57297;SDS011;43147;50.972;18.210;2022-12-18T08:58:37;76.20;;;21.80;;
57297;SDS011;43147;50.972;18.210;2022-12-18T09:01:04;56.60;;;19.30;;
57297;SDS011;43147;50.972;18.210;2022-12-18T09:03:30;71.20;;;22.50;;
57297;SDS011;43147;50.972;18.210;2022-12-18T09:05:56;60.90;;;20.50;;
57297;SDS011;43147;50.972;18.210;2022-12-18T09:08:24;66.20;;;22.80;;
57297;SDS011;43147;50.972;18.210;2022-12-18T09:10:50;70.20;;;21.10;;
57297;SDS011;43147;50.972;18.210;2022-12-18T09:13:16;70.00;;;25.10;;
57297;SDS011;43147;50.972;18.210;2022-12-18T09:15:43;76.60;;;25.70;;
57297;SDS011;43147;50.972;18.210;2022-12-18T09:18:10;64.40;;;22.40;;
57297;SDS011;43147;50.972;18.210;2022-12-18T09:20:37;72.00;;;23.50;;
57297;SDS011;43147;50.972;18.210;2022-12-18T09:23:03;69.00;;;24.00;;
57297;SDS011;43147;50.972;18.210;2022-12-18T09:25:29;64.90;;;26.20;;
57297;SDS011;43147;50.972;18.210;2022-12-18T09:27:59;81.00;;;28.50;;
57297;SDS011;43147;50.972;18.210;2022-12-18T09:30:26;65.20;;;23.90;;
57297;SDS011;43147;50.972;18.210;2022-12-18T09:32:51;69.40;;;22.90;;
57297;SDS011;43147;50.972;18.210;2022-12-18T09:35:17;69.70;;;23.00;;
57297;SDS011;43147;50.972;18.210;2022-12-18T09:37:42;59.30;;;22.40;;
57297;SDS011;43147;50.972;18.210;2022-12-18T09:40:13;72.30;;;23.70;;
57297;SDS011;43147;50.972;18.210;2022-12-18T09:42:40;59.90;;;21.30;;
57297;SDS011;43147;50.972;18.210;2022-12-18T09:45:07;64.80;;;21.60;;
57297;SDS011;43147;50.972;18.210;2022-12-18T09:47:38;61.60;;;20.10;;
57297;SDS011;43147;50.972;18.210;2022-12-18T09:50:05;59.20;;;21.10;;
57297;SDS011;43147;50.972;18.210;2022-12-18T09:52:41;53.10;;;19.80;;
57297;SDS011;43147;50.972;18.210;2022-12-18T09:57:55;61.30;;;19.70;;
57297;SDS011;43147;50.972;18.210;2022-12-18T10:00:26;47.90;;;18.70;;
57297;SDS011;43147;50.972;18.210;2022-12-18T10:02:53;72.50;;;24.30;;
57297;SDS011;43147;50.972;18.210;2022-12-18T10:05:35;61.40;;;20.10;;
57297;SDS011;43147;50.972;18.210;2022-12-18T10:08:06;63.60;;;21.30;;
57297;SDS011;43147;50.972;18.210;2022-12-18T10:10:46;60.20;;;21.30;;
57297;SDS011;43147;50.972;18.210;2022-12-18T10:13:16;65.40;;;23.80;;
57297;SDS011;43147;50.972;18.210;2022-12-18T10:21:10;53.30;;;19.80;;
57297;SDS011;43147;50.972;18.210;2022-12-18T10:26:07;56.40;;;20.10;;
57297;SDS011;43147;50.972;18.210;2022-12-18T10:28:38;56.00;;;20.00;;
57297;SDS011;43147;50.972;18.210;2022-12-18T10:31:05;50.00;;;18.20;;
57297;SDS011;43147;50.972;18.210;2022-12-18T10:33:32;57.20;;;20.40;;
57297;SDS011;43147;50.972;18.210;2022-12-18T10:35:58;58.90;;;22.50;;
57297;SDS011;43147;50.972;18.210;2022-12-18T10:38:27;67.80;;;23.80;;
57297;SDS011;43147;50.972;18.210;2022-12-18T10:41:07;94.30;;;30.50;;
57297;SDS011;43147;50.972;18.210;2022-12-18T10:43:47;47.40;;;19.40;;
57297;SDS011;43147;50.972;18.210;2022-12-18T10:46:14;59.40;;;20.80;;
57297;SDS011;43147;50.972;18.210;2022-12-18T10:54:15;62.50;;;22.00;;
57297;SDS011;43147;50.972;18.210;2022-12-18T10:56:46;62.60;;;22.20;;
57297;SDS011;43147;50.972;18.210;2022-12-18T10:59:16;61.90;;;22.80;;
57297;SDS011;43147;50.972;18.210;2022-12-18T11:01:47;57.60;;;21.00;;
57297;SDS011;43147;50.972;18.210;2022-12-18T11:04:23;61.30;;;22.80;;
57297;SDS011;43147;50.972;18.210;2022-12-18T11:06:54;60.10;;;20.50;;
57297;SDS011;43147;50.972;18.210;2022-12-18T11:09:21;52.70;;;21.30;;
57297;SDS011;43147;50.972;18.210;2022-12-18T11:11:49;57.70;;;22.10;;
57297;SDS011;43147;50.972;18.210;2022-12-18T11:17:30;57.40;;;21.00;;
57297;SDS011;43147;50.972;18.210;2022-12-18T11:19:58;62.10;;;22.10;;
57297;SDS011;43147;50.972;18.210;2022-12-18T11:22:33;62.20;;;25.10;;
57297;SDS011;43147;50.972;18.210;2022-12-18T11:25:01;56.20;;;21.90;;
57297;SDS011;43147;50.972;18.210;2022-12-18T11:27:36;54.70;;;22.20;;
57297;SDS011;43147;50.972;18.210;2022-12-18T11:30:20;63.30;;;23.30;;
57297;SDS011;43147;50.972;18.210;2022-12-18T11:33:12;51.00;;;20.80;;
57297;SDS011;43147;50.972;18.210;2022-12-18T11:38:32;59.50;;;22.90;;
57297;SDS011;43147;50.972;18.210;2022-12-18T11:41:01;63.00;;;25.00;;
57297;SDS011;43147;50.972;18.210;2022-12-18T11:43:52;69.40;;;24.60;;
57297;SDS011;43147;50.972;18.210;2022-12-18T11:54:36;68.80;;;23.20;;
57297;SDS011;43147;50.972;18.210;2022-12-18T11:57:05;80.60;;;26.10;;
57297;SDS011;43147;50.972;18.210;2022-12-18T12:07:41;80.90;;;27.90;;
57297;SDS011;43147;50.972;18.210;2022-12-18T12:16:10;81.00;;;28.50;;
57297;SDS011;43147;50.972;18.210;2022-12-18T12:38:47;96.00;;;31.30;;
57297;SDS011;43147;50.972;18.210;2022-12-18T12:41:19;84.20;;;28.00;;
57297;SDS011;43147;50.972;18.210;2022-12-18T12:44:07;88.60;;;28.90;;
57297;SDS011;43147;50.972;18.210;2022-12-18T12:46:39;89.80;;;30.30;;
57297;SDS011;43147;50.972;18.210;2022-12-18T12:49:10;106.00;;;31.30;;
57297;SDS011;43147;50.972;18.210;2022-12-18T12:51:40;103.10;;;31.90;;
57297;SDS011;43147;50.972;18.210;2022-12-18T12:54:25;97.50;;;31.30;;
57297;SDS011;43147;50.972;18.210;2022-12-18T13:02:21;97.70;;;32.00;;
57297;SDS011;43147;50.972;18.210;2022-12-18T13:04:50;91.40;;;29.80;;
57297;SDS011;43147;50.972;18.210;2022-12-18T13:07:35;91.20;;;27.70;;
57297;SDS011;43147;50.972;18.210;2022-12-18T13:13:01;96.00;;;27.60;;
57297;SDS011;43147;50.972;18.210;2022-12-18T13:18:05;103.50;;;32.00;;
57297;SDS011;43147;50.972;18.210;2022-12-18T13:25:59;134.30;;;36.80;;
57297;SDS011;43147;50.972;18.210;2022-12-18T13:34:14;76.60;;;27.00;;
57297;SDS011;43147;50.972;18.210;2022-12-18T13:36:42;108.70;;;36.10;;
57297;SDS011;43147;50.972;18.210;2022-12-18T13:41:42;98.20;;;30.00;;
57297;SDS011;43147;50.972;18.210;2022-12-18T13:46:55;84.60;;;26.80;;
57297;SDS011;43147;50.972;18.210;2022-12-18T13:49:22;92.10;;;28.60;;
57297;SDS011;43147;50.972;18.210;2022-12-18T13:51:50;80.80;;;27.00;;
57297;SDS011;43147;50.972;18.210;2022-12-18T13:54:35;103.80;;;29.80;;
57297;SDS011;43147;50.972;18.210;2022-12-18T13:57:03;72.40;;;23.10;;
57297;SDS011;43147;50.972;18.210;2022-12-18T13:59:38;69.70;;;21.90;;
57297;SDS011;43147;50.972;18.210;2022-12-18T14:02:23;71.50;;;26.00;;
57297;SDS011;43147;50.972;18.210;2022-12-18T14:05:20;74.60;;;23.50;;
57297;SDS011;43147;50.972;18.210;2022-12-18T14:07:47;84.00;;;29.30;;
57297;SDS011;43147;50.972;18.210;2022-12-18T14:10:13;84.20;;;25.60;;
57297;SDS011;43147;50.972;18.210;2022-12-18T14:12:44;82.30;;;25.50;;
57297;SDS011;43147;50.972;18.210;2022-12-18T14:20:43;77.00;;;23.30;;
57297;SDS011;43147;50.972;18.210;2022-12-18T14:25:55;67.70;;;23.70;;
57297;SDS011;43147;50.972;18.210;2022-12-18T14:28:20;83.50;;;28.10;;
57297;SDS011;43147;50.972;18.210;2022-12-18T14:30:47;79.10;;;25.80;;
57297;SDS011;43147;50.972;18.210;2022-12-18T14:33:15;86.60;;;26.80;;
57297;SDS011;43147;50.972;18.210;2022-12-18T14:35:56;88.30;;;24.70;;
57297;SDS011;43147;50.972;18.210;2022-12-18T14:38:33;86.00;;;25.50;;
57297;SDS011;43147;50.972;18.210;2022-12-18T14:41:01;91.90;;;26.10;;
57297;SDS011;43147;50.972;18.210;2022-12-18T14:43:29;78.00;;;24.00;;
57297;SDS011;43147;50.972;18.210;2022-12-18T14:45:57;88.50;;;27.30;;
57297;SDS011;43147;50.972;18.210;2022-12-18T14:48:36;94.90;;;32.50;;
57297;SDS011;43147;50.972;18.210;2022-12-18T14:51:02;112.90;;;33.70;;
57297;SDS011;43147;50.972;18.210;2022-12-18T14:56:29;145.50;;;43.30;;
57297;SDS011;43147;50.972;18.210;2022-12-18T14:59:15;83.80;;;26.60;;
57297;SDS011;43147;50.972;18.210;2022-12-18T15:01:51;89.20;;;25.10;;
57297;SDS011;43147;50.972;18.210;2022-12-18T15:09:36;99.40;;;33.20;;
57297;SDS011;43147;50.972;18.210;2022-12-18T15:12:03;86.20;;;26.10;;
57297;SDS011;43147;50.972;18.210;2022-12-18T15:14:47;74.50;;;23.60;;
57297;SDS011;43147;50.972;18.210;2022-12-18T15:17:15;72.00;;;24.50;;
57297;SDS011;43147;50.972;18.210;2022-12-18T15:19:42;79.90;;;22.40;;
57297;SDS011;43147;50.972;18.210;2022-12-18T15:22:42;88.60;;;27.80;;
57297;SDS011;43147;50.972;18.210;2022-12-18T15:25:01;104.20;;;37.90;;
57297;SDS011;43147;50.972;18.210;2022-12-18T15:32:31;90.70;;;25.70;;
57297;SDS011;43147;50.972;18.210;2022-12-18T15:35:08;109.90;;;26.30;;
57297;SDS011;43147;50.972;18.210;2022-12-18T15:37:51;84.60;;;24.60;;
57297;SDS011;43147;50.972;18.210;2022-12-18T15:40:18;77.10;;;23.60;;
57297;SDS011;43147;50.972;18.210;2022-12-18T15:42:48;79.00;;;23.40;;
57297;SDS011;43147;50.972;18.210;2022-12-18T15:45:33;70.70;;;24.90;;
57297;SDS011;43147;50.972;18.210;2022-12-18T15:47:58;84.70;;;27.20;;
57297;SDS011;43147;50.972;18.210;2022-12-18T15:50:24;67.10;;;22.20;;
57297;SDS011;43147;50.972;18.210;2022-12-18T15:52:51;87.80;;;23.90;;
57297;SDS011;43147;50.972;18.210;2022-12-18T15:55:21;83.30;;;21.80;;
57297;SDS011;43147;50.972;18.210;2022-12-18T15:58:08;63.40;;;20.70;;
57297;SDS011;43147;50.972;18.210;2022-12-18T16:00:34;80.30;;;25.10;;
57297;SDS011;43147;50.972;18.210;2022-12-18T16:03:04;87.80;;;23.00;;
57297;SDS011;43147;50.972;18.210;2022-12-18T16:05:30;262.40;;;61.20;;
57297;SDS011;43147;50.972;18.210;2022-12-18T16:07:56;79.70;;;26.60;;
57297;SDS011;43147;50.972;18.210;2022-12-18T16:10:22;88.90;;;28.70;;
57297;SDS011;43147;50.972;18.210;2022-12-18T16:12:50;117.40;;;35.70;;
57297;SDS011;43147;50.972;18.210;2022-12-18T16:15:17;102.00;;;31.80;;
57297;SDS011;43147;50.972;18.210;2022-12-18T16:17:43;105.00;;;33.60;;
57297;SDS011;43147;50.972;18.210;2022-12-18T16:20:16;97.40;;;30.40;;
57297;SDS011;43147;50.972;18.210;2022-12-18T16:22:44;79.90;;;25.10;;
57297;SDS011;43147;50.972;18.210;2022-12-18T16:25:24;95.40;;;26.10;;
57297;SDS011;43147;50.972;18.210;2022-12-18T16:27:51;103.30;;;32.30;;
57297;SDS011;43147;50.972;18.210;2022-12-18T16:30:20;104.70;;;28.60;;
57297;SDS011;43147;50.972;18.210;2022-12-18T16:32:47;132.10;;;36.90;;
57297;SDS011;43147;50.972;18.210;2022-12-18T16:35:14;86.40;;;28.80;;